Time;durP1;ratioP1;P1;durP2;ratioP2;P2;SDS_P1;SDS_P2;PMS_P1;PMS_P2;Temp;Humidity;BMP_temperature;BMP_pressure;BME280_temperature;BME280_humidity;BME280_pressure;Samples;Min_cycle;Max_cycle;Signal;HPM_P1;HPM_P2
2021/06/08 00:00:51;;;;;;;7.43;4.32;;;21.50;69.40;;;;;;6127969;29;20047;-79
2021/06/08 00:03:52;;;;;;;9.20;4.60;;;21.50;69.50;;;;;;6127890;29;20054;-79
2021/06/08 00:06:53;;;;;;;8.50;3.50;;;21.50;69.40;;;;;;6127419;29;20052;-78
2021/06/08 00:09:54;;;;;;;7.13;2.42;;;21.50;69.40;;;;;;6127503;29;20075;-78
2021/06/08 00:12:55;;;;;;;3.05;2.15;;;21.50;69.50;;;;;;6127307;29;20068;-78
2021/06/08 00:15:56;;;;;;;3.20;1.95;;;21.60;69.50;;;;;;6128447;29;20040;-78
2021/06/08 00:18:57;;;;;;;2.95;1.80;;;21.60;69.30;;;;;;6126878;29;20122;-79
2021/06/08 00:21:58;;;;;;;4.30;2.03;;;21.60;69.20;;;;;;6111511;29;20058;-79
2021/06/08 00:24:59;;;;;;;4.20;2.28;;;21.60;69.00;;;;;;6095540;29;20051;-79
2021/06/08 00:28:03;;;;;;;5.47;2.30;;;21.70;69.00;;;;;;6111669;29;20380;-79
2021/06/08 00:31:04;;;;;;;4.85;1.85;;;21.70;68.90;;;;;;6127045;29;20178;-78
2021/06/08 00:34:05;;;;;;;3.65;1.77;;;21.70;68.80;;;;;;6127209;29;20035;-79
2021/06/08 00:37:06;;;;;;;4.45;2.00;;;21.70;69.80;;;;;;6125140;28;20071;-79
2021/06/08 00:40:11;;;;;;;2.58;2.17;;;21.60;68.80;;;;;;6126548;29;20044;-79
2021/06/08 00:43:12;;;;;;;3.45;1.83;;;21.70;68.80;;;;;;6112055;29;20071;-79
2021/06/08 00:46:13;;;;;;;5.28;1.90;;;21.70;68.90;;;;;;6115538;29;20111;-78
2021/06/08 00:49:15;;;;;;;6.43;1.85;;;21.70;68.80;;;;;;6131154;29;20036;-78
2021/06/08 00:52:16;;;;;;;6.65;2.20;;;21.70;68.80;;;;;;6133447;29;20083;-79
2021/06/08 00:55:18;;;;;;;4.38;2.47;;;21.70;68.80;;;;;;6142794;28;20423;-78
2021/06/08 00:58:19;;;;;;;3.25;2.15;;;21.70;68.90;;;;;;6131832;29;20027;-78
2021/06/08 01:01:20;;;;;;;2.40;1.65;;;21.70;69.00;;;;;;6131327;28;20032;-78
2021/06/08 01:04:21;;;;;;;2.92;1.95;;;21.70;69.00;;;;;;6131828;28;20055;-79
2021/06/08 01:11:44;;;;;;;;;;;21.70;69.00;;;;;;6132783;29;20035;-78
2021/06/08 01:14:45;;;;;;;3.30;2.22;;;21.70;68.90;;;;;;6131465;29;19997;-78
2021/06/08 01:17:46;;;;;;;7.30;2.97;;;21.60;68.80;;;;;;6130550;28;20039;-78
2021/06/08 01:20:47;;;;;;;5.75;2.97;;;21.60;68.90;;;;;;6130831;29;20035;-78
2021/06/08 01:23:48;;;;;;;4.85;2.88;;;21.50;69.00;;;;;;6130363;28;20043;-78
2021/06/08 01:26:49;;;;;;;4.63;2.97;;;21.50;69.20;;;;;;6113824;28;20465;-79
2021/06/08 01:29:52;;;;;;;8.15;3.75;;;21.50;69.20;;;;;;6145828;28;20043;-78
2021/06/08 01:32:54;;;;;;;8.05;4.20;;;21.50;69.20;;;;;;6129063;28;20058;-79
2021/06/08 01:35:55;;;;;;;7.65;4.47;;;21.50;69.20;;;;;;6130218;29;20373;-78
2021/06/08 01:38:56;;;;;;;8.55;5.03;;;21.40;69.10;;;;;;6145642;28;20125;-79
2021/06/08 01:41:58;;;;;;;7.75;4.57;;;21.40;69.10;;;;;;6128110;29;20051;-79
2021/06/08 01:44:59;;;;;;;14.15;4.20;;;21.40;69.00;;;;;;6129797;28;20070;-79
2021/06/08 01:56:51;;;;;;;6.25;3.08;;;21.40;69.20;;;;;;6129720;28;20086;-78
2021/06/08 02:00:06;;;;;;;3.47;2.42;;;21.40;69.20;;;;;;6130580;28;20063;-79
2021/06/08 02:03:33;;;;;;;6.30;2.10;;;21.40;69.40;;;;;;6145794;28;20036;-79
2021/06/08 02:06:38;;;;;;;7.38;3.67;;;21.40;69.50;;;;;;6123912;28;20050;-79
2021/06/08 02:10:10;;;;;;;7.35;3.90;;;21.40;69.50;;;;;;6124525;28;20343;-79
2021/06/08 02:13:20;;;;;;;6.75;4.55;;;21.30;69.70;;;;;;6126787;29;20155;-78
2021/06/08 02:16:35;;;;;;;10.57;5.00;;;21.30;69.70;;;;;;6126209;28;20523;-79
2021/06/08 02:19:37;;;;;;;11.00;5.50;;;21.20;69.70;;;;;;6128461;29;20047;-79
2021/06/08 02:22:43;;;;;;;10.05;5.22;;;21.20;69.70;;;;;;6129603;29;20039;-79
2021/06/08 02:25:45;;;;;;;12.40;5.65;;;21.20;69.70;;;;;;6144955;28;20463;-79
2021/06/08 02:28:48;;;;;;;12.25;5.20;;;21.10;69.60;;;;;;6127800;29;20036;-79
2021/06/08 02:31:50;;;;;;;11.82;5.50;;;21.10;69.70;;;;;;6128057;29;20052;-81
2021/06/08 02:34:52;;;;;;;17.60;5.93;;;21.00;69.70;;;;;;6128337;29;20138;-78
2021/06/08 02:37:54;;;;;;;11.93;6.15;;;21.00;69.80;;;;;;6127585;29;20047;-78
2021/06/08 02:40:55;;;;;;;9.73;5.63;;;20.90;69.80;;;;;;6127567;29;20458;-78
2021/06/08 02:43:56;;;;;;;10.88;5.38;;;20.90;70.00;;;;;;6127520;28;20044;-78
2021/06/08 02:46:58;;;;;;;11.68;5.28;;;20.90;70.10;;;;;;6126917;29;20048;-78
2021/06/08 02:50:04;;;;;;;6.70;4.00;;;20.90;70.40;;;;;;6127428;29;20079;-78
2021/06/08 02:53:06;;;;;;;9.27;4.30;;;20.90;70.40;;;;;;6112431;29;20071;-78
2021/06/08 02:56:08;;;;;;;7.32;3.75;;;20.90;70.40;;;;;;6126511;28;20103;-78
2021/06/08 02:59:10;;;;;;;7.28;3.92;;;21.00;70.30;;;;;;6126988;29;20036;-78
2021/06/08 03:02:14;;;;;;;8.75;3.88;;;21.00;70.20;;;;;;6127092;28;20364;-78
2021/06/08 03:05:24;;;;;;;6.43;3.60;;;21.00;70.20;;;;;;6110734;28;20119;-78
2021/06/08 03:08:32;;;;;;;5.03;2.88;;;21.10;70.20;;;;;;6125094;29;20362;-78
2021/06/08 03:11:40;;;;;;;4.30;2.97;;;21.20;70.30;;;;;;6126799;29;20114;-78
2021/06/08 03:14:43;;;;;;;;;;;21.20;70.10;;;;;;6129244;29;20040;-78
2021/06/08 03:17:45;;;;;;;3.88;2.75;;;21.30;70.00;;;;;;6127684;29;19918;-78
2021/06/08 03:20:52;;;;;;;5.93;3.22;;;21.30;69.70;;;;;;6127169;28;20035;-79
2021/06/08 03:23:56;;;;;;;4.32;2.78;;;21.40;69.80;;;;;;6128351;29;20063;-78
2021/06/08 03:27:00;;;;;;;4.88;2.58;;;21.40;69.70;;;;;;6144531;28;20035;-78
2021/06/08 03:30:01;;;;;;;5.40;2.70;;;21.40;69.80;;;;;;6129171;29;20091;-78
2021/06/08 03:33:03;;;;;;;3.25;2.45;;;21.40;69.70;;;;;;6130600;28;20040;-78
2021/06/08 03:36:05;;;;;;;4.47;2.83;;;21.40;69.60;;;;;;6119926;29;20062;-77
2021/06/08 03:39:06;;;;;;;4.63;2.60;;;21.50;69.60;;;;;;6127251;29;20118;-78
2021/06/08 03:42:08;;;;;;;3.22;2.20;;;21.40;69.50;;;;;;6140340;28;20067;-78
2021/06/08 03:45:14;;;;;;;2.80;2.05;;;21.50;69.50;;;;;;6129805;28;20064;-78
2021/06/08 03:48:16;;;;;;;4.57;2.00;;;21.50;69.40;;;;;;6125680;29;20031;-78
2021/06/08 03:51:18;;;;;;;3.75;2.13;;;21.50;69.40;;;;;;6126367;29;20047;-78
2021/06/08 03:54:20;;;;;;;3.60;2.15;;;21.50;69.40;;;;;;6127443;29;20031;-78
2021/06/08 03:57:27;;;;;;;2.83;1.98;;;21.50;69.30;;;;;;6127006;29;20070;-78
2021/06/08 04:00:29;;;;;;;5.57;1.95;;;21.60;69.30;;;;;;6124984;29;20035;-78
2021/06/08 04:03:32;;;;;;;6.05;2.55;;;21.60;69.20;;;;;;6141748;28;20040;-78
2021/06/08 04:06:35;;;;;;;4.55;2.15;;;21.60;69.20;;;;;;6126256;29;20046;-79
2021/06/08 04:09:35;;;;;;;4.68;2.65;;;21.60;69.20;;;;;;6125756;29;20187;-79
2021/06/08 04:12:36;;;;;;;9.23;2.50;;;21.60;69.20;;;;;;6125866;29;20462;-79
2021/06/08 04:15:38;;;;;;;9.48;2.53;;;21.60;69.20;;;;;;6125647;28;20126;-79
2021/06/08 04:18:40;;;;;;;10.13;2.63;;;21.60;69.20;;;;;;6143993;28;20031;-78
2021/06/08 04:21:43;;;;;;;4.55;2.63;;;21.60;69.20;;;;;;6145462;28;20032;-78
2021/06/08 04:24:47;;;;;;;8.55;2.90;;;21.60;69.20;;;;;;6113449;29;20131;-78
2021/06/08 04:27:48;;;;;;;3.40;2.35;;;21.70;69.40;;;;;;6146061;28;20039;-79
2021/06/08 04:30:51;;;;;;;3.95;2.65;;;21.70;69.30;;;;;;6129571;28;20054;-79
2021/06/08 04:33:52;;;;;;;4.63;2.78;;;21.70;69.30;;;;;;6130682;28;20036;-79
2021/06/08 04:36:53;;;;;;;4.97;2.65;;;21.70;69.30;;;;;;6130186;28;20042;-79
2021/06/08 04:39:54;;;;;;;8.20;2.92;;;21.70;69.30;;;;;;6144245;28;20386;-78
2021/06/08 04:42:55;;;;;;;5.32;2.92;;;21.70;69.30;;;;;;6138289;28;20091;-78
2021/06/08 04:46:05;;;;;;;8.50;2.90;;;21.80;69.30;;;;;;6130168;29;20469;-78
2021/06/08 04:49:06;;;;;;;5.95;2.78;;;21.70;69.30;;;;;;6128995;29;20131;-78
2021/06/08 04:52:08;;;;;;;6.65;2.58;;;21.80;69.20;;;;;;6129632;28;20036;-79
2021/06/08 04:55:11;;;;;;;12.10;2.35;;;21.80;69.10;;;;;;6130850;29;20452;-78
2021/06/08 04:58:12;;;;;;;2.55;2.03;;;21.70;69.00;;;;;;6146008;28;20039;-79
2021/06/08 05:01:34;;;;;;;2.58;1.83;;;21.80;69.10;;;;;;6145354;28;20032;-78
2021/06/08 05:04:40;;;;;;;6.68;2.95;;;21.80;69.10;;;;;;6145277;28;20059;-78
2021/06/08 05:07:47;;;;;;;6.60;4.28;;;21.90;68.90;;;;;;6145386;28;20039;-78
2021/06/08 05:10:55;;;;;;;11.30;5.80;;;21.90;68.50;;;;;;6113910;29;20361;-79
2021/06/08 05:13:57;;;;;;;8.67;5.17;;;21.90;67.90;;;;;;6129688;29;20040;-78
2021/06/08 05:16:58;;;;;;;5.32;3.13;;;21.90;67.10;;;;;;6144975;28;20032;-79
2021/06/08 05:20:00;;;;;;;6.60;2.92;;;21.90;67.00;;;;;;6127518;28;20039;-78
2021/06/08 05:23:02;;;;;;;5.20;3.00;;;21.90;67.20;;;;;;6144920;28;20123;-78
2021/06/08 05:26:04;;;;;;;4.60;3.33;;;21.90;67.20;;;;;;6145052;28;20035;-78
2021/06/08 05:29:06;;;;;;;4.53;2.28;;;22.00;67.20;;;;;;6127880;28;20028;-79
2021/06/08 05:32:07;;;;;;;6.53;4.30;;;22.00;67.10;;;;;;6143767;28;20050;-78
2021/06/08 05:35:09;;;;;;;7.68;4.13;;;22.00;67.10;;;;;;6127898;29;20032;-79
2021/06/08 05:38:10;;;;;;;10.50;5.47;;;21.90;67.10;;;;;;6144082;28;20331;-79
2021/06/08 05:41:13;;;;;;;11.05;7.00;;;21.90;66.80;;;;;;6144530;28;20514;-78
2021/06/08 05:44:14;;;;;;;12.82;7.50;;;21.90;66.30;;;;;;6128408;28;20094;-78
2021/06/08 05:47:15;;;;;;;10.70;7.00;;;21.80;65.90;;;;;;6129591;29;20047;-78
2021/06/08 05:50:17;;;;;;;13.55;7.70;;;21.70;65.70;;;;;;6111542;28;20465;-79
2021/06/08 05:53:18;;;;;;;11.80;7.03;;;21.70;65.60;;;;;;6128091;28;20437;-79
2021/06/08 05:56:21;;;;;;;10.45;6.90;;;21.70;65.30;;;;;;6144636;28;20046;-82
2021/06/08 05:59:24;;;;;;;10.68;6.78;;;21.80;65.10;;;;;;6144922;28;20142;-80
2021/06/08 06:02:27;;;;;;;8.68;5.57;;;21.80;64.40;;;;;;6142924;28;20095;-80
2021/06/08 06:05:28;;;;;;;10.60;6.50;;;21.90;64.40;;;;;;6127760;29;20044;-80
2021/06/08 06:08:30;;;;;;;16.95;6.93;;;21.90;64.30;;;;;;6112373;28;20127;-79
2021/06/08 06:11:35;;;;;;;10.75;7.45;;;22.00;63.90;;;;;;6143879;28;20054;-79
2021/06/08 06:14:36;;;;;;;11.90;7.30;;;22.10;63.40;;;;;;6125463;28;20043;-80
2021/06/08 06:17:39;;;;;;;8.68;5.35;;;22.10;62.80;;;;;;6121332;29;20107;-81
2021/06/08 06:20:41;;;;;;;12.75;6.25;;;22.10;62.40;;;;;;6111593;28;20150;-80
2021/06/08 06:23:42;;;;;;;10.73;5.13;;;22.20;62.80;;;;;;6127254;29;20102;-79
2021/06/08 06:26:45;;;;;;;7.90;4.20;;;22.20;62.70;;;;;;6129176;28;21049;-80
2021/06/08 06:29:49;;;;;;;11.68;6.65;;;22.30;63.30;;;;;;6127593;29;20123;-81
2021/06/08 06:32:50;;;;;;;16.90;5.13;;;22.30;62.80;;;;;;6143093;28;20083;-79
2021/06/08 06:35:51;;;;;;;11.50;5.03;;;22.40;62.60;;;;;;6111144;29;20032;-80
2021/06/08 06:39:07;;;;;;;6.85;3.88;;;22.40;62.70;;;;;;6126235;29;20067;-80
2021/06/08 06:42:15;;;;;;;2.40;1.60;;;22.40;62.70;;;;;;6122310;28;20040;-79
2021/06/08 06:45:20;;;;;;;4.60;2.20;;;22.50;62.80;;;;;;6130951;28;20444;-79
2021/06/08 06:48:21;;;;;;;7.43;2.78;;;22.60;62.90;;;;;;6140908;28;20495;-79
2021/06/08 06:51:23;;;;;;;3.65;2.42;;;22.70;63.00;;;;;;6140324;28;20027;-80
2021/06/08 06:54:24;;;;;;;5.72;3.80;;;22.80;63.10;;;;;;6123695;28;20059;-79
2021/06/08 06:57:26;;;;;;;7.97;4.28;;;22.80;63.00;;;;;;6109617;28;20260;-80
2021/06/08 07:00:29;;;;;;;7.30;5.25;;;22.90;62.90;;;;;;6109851;28;20473;-79
2021/06/08 07:03:36;;;;;;;15.13;4.97;;;23.00;62.60;;;;;;6123777;29;20039;-79
2021/06/08 07:06:41;;;;;;;7.82;4.00;;;23.10;62.30;;;;;;6141130;28;20039;-80
2021/06/08 07:09:44;;;;;;;6.80;3.50;;;23.10;62.10;;;;;;6141585;28;20039;-79
2021/06/08 07:12:46;;;;;;;5.28;3.35;;;23.20;62.10;;;;;;6101356;29;20127;-79
2021/06/08 07:15:49;;;;;;;7.82;4.10;;;23.20;62.20;;;;;;6089826;29;20040;-80
2021/06/08 07:18:50;;;;;;;8.07;3.95;;;23.30;62.20;;;;;;6086466;29;20074;-79
2021/06/08 07:21:51;;;;;;;7.70;3.60;;;23.40;62.10;;;;;;6098613;28;20115;-79
2021/06/08 07:24:53;;;;;;;4.90;3.15;;;23.50;62.00;;;;;;6101615;29;20044;-78
2021/06/08 07:27:54;;;;;;;13.05;3.85;;;23.50;61.90;;;;;;6100814;28;20039;-79
2021/06/08 07:30:55;;;;;;;7.10;4.20;;;23.60;61.60;;;;;;6098032;29;20048;-80
2021/06/08 07:34:03;;;;;;;5.05;3.33;;;23.70;61.30;;;;;;6094495;29;20055;-79
2021/06/08 07:37:07;;;;;;;10.70;4.55;;;23.90;61.00;;;;;;6103242;28;20100;-79
2021/06/08 07:40:20;;;;;;;12.20;4.45;;;24.10;60.50;;;;;;6112857;28;20032;-80
2021/06/08 07:43:25;;;;;;;9.77;5.78;;;24.10;59.90;;;;;;6094431;29;20032;-79
2021/06/08 07:46:30;;;;;;;7.45;5.00;;;24.20;59.70;;;;;;6110131;28;20232;-78
2021/06/08 07:49:34;;;;;;;15.45;7.63;;;24.20;59.20;;;;;;6090296;28;20027;-78
2021/06/08 07:52:37;;;;;;;7.88;5.53;;;24.20;58.00;;;;;;6093714;29;20032;-79
2021/06/08 07:55:42;;;;;;;13.90;6.45;;;24.30;57.80;;;;;;6105272;29;20094;-77
2021/06/08 07:58:43;;;;;;;9.85;4.85;;;24.30;57.40;;;;;;6109282;29;20522;-79
2021/06/08 08:01:44;;;;;;;8.40;5.88;;;24.50;57.10;;;;;;6099307;29;20029;-79
2021/06/08 08:04:52;;;;;;;12.68;5.90;;;24.50;56.20;;;;;;6082363;29;20138;-79
2021/06/08 08:07:54;;;;;;;7.93;5.43;;;24.50;55.90;;;;;;6094985;29;20036;-79
2021/06/08 08:10:59;;;;;;;9.13;5.75;;;24.50;55.70;;;;;;6079546;29;20119;-79
2021/06/08 08:14:03;;;;;;;9.23;5.78;;;24.50;55.40;;;;;;6102802;28;20072;-79
2021/06/08 08:17:08;;;;;;;11.35;5.90;;;24.30;55.10;;;;;;6108754;28;20137;-79
2021/06/08 08:20:10;;;;;;;10.55;6.00;;;24.30;55.10;;;;;;6092786;29;20063;-79
2021/06/08 08:23:12;;;;;;;9.02;5.85;;;24.30;55.00;;;;;;6102685;28;20537;-79
2021/06/08 08:26:14;;;;;;;12.80;6.13;;;24.20;55.00;;;;;;6100924;29;20036;-79
2021/06/08 08:29:15;;;;;;;11.57;5.93;;;24.20;55.10;;;;;;6081206;28;20049;-80
2021/06/08 08:32:19;;;;;;;10.48;6.00;;;24.10;55.00;;;;;;6096276;29;20029;-79
2021/06/08 08:35:20;;;;;;;8.35;5.75;;;24.10;54.80;;;;;;6106998;29;20056;-79
2021/06/08 08:38:21;;;;;;;12.15;6.18;;;24.10;54.70;;;;;;6104134;28;20028;-79
2021/06/08 08:41:24;;;;;;;10.38;6.60;;;24.10;54.60;;;;;;6106403;29;20145;-80
2021/06/08 08:44:25;;;;;;;10.95;5.68;;;24.20;54.30;;;;;;6101014;29;20127;-80
2021/06/08 08:47:27;;;;;;;9.90;5.90;;;24.20;54.30;;;;;;6098725;29;20037;-80
2021/06/08 08:50:28;;;;;;;11.75;6.45;;;24.30;54.30;;;;;;6101887;29;20036;-79
2021/06/08 08:53:31;;;;;;;10.40;5.82;;;24.30;54.10;;;;;;6106405;29;20047;-80
2021/06/08 08:56:36;;;;;;;10.43;5.85;;;24.40;53.90;;;;;;6121865;28;20051;-79
2021/06/08 08:59:37;;;;;;;12.68;5.40;;;24.50;53.70;;;;;;6102107;29;20051;-79
2021/06/08 09:02:44;;;;;;;8.77;5.60;;;24.70;53.40;;;;;;6099398;29;20453;-80
2021/06/08 09:05:45;;;;;;;13.63;5.40;;;24.80;53.20;;;;;;6119098;28;20040;-80
2021/06/08 09:08:46;;;;;;;8.63;5.25;;;24.90;52.90;;;;;;6103387;28;20634;-79
2021/06/08 09:11:47;;;;;;;8.02;5.30;;;25.10;52.60;;;;;;6103070;29;20139;-80
2021/06/08 09:14:49;;;;;;;9.02;5.13;;;25.20;52.00;;;;;;6082851;29;20043;-80
2021/06/08 09:17:59;;;;;;;16.63;6.20;;;25.30;51.90;;;;;;6084344;29;20135;-80
2021/06/08 09:21:27;;;;;;;8.45;5.03;;;25.20;51.70;;;;;;6106050;28;20090;-79
2021/06/08 09:24:31;;;;;;;7.88;4.97;;;25.20;51.70;;;;;;6100939;29;20048;-81
2021/06/08 09:27:31;;;;;;;7.47;4.82;;;25.20;51.50;;;;;;6102160;28;20147;-81
2021/06/08 09:30:36;;;;;;;10.40;5.43;;;25.20;51.20;;;;;;6101225;29;20064;-79
2021/06/08 09:33:51;;;;;;;10.70;5.05;;;25.20;51.20;;;;;;6117747;29;20036;-80
2021/06/08 09:36:53;;;;;;;10.13;4.78;;;25.10;51.20;;;;;;6103488;29;20039;-79
2021/06/08 09:39:54;;;;;;;13.80;5.50;;;25.20;51.20;;;;;;6120155;28;20091;-79
2021/06/08 09:43:06;;;;;;;9.40;5.38;;;25.20;51.20;;;;;;6106933;29;20127;-80
2021/06/08 09:46:07;;;;;;;9.90;6.13;;;25.20;51.00;;;;;;6118631;28;20095;-80
2021/06/08 09:49:15;;;;;;;9.40;6.03;;;25.20;51.00;;;;;;6103830;29;20418;-79
2021/06/08 09:52:19;;;;;;;10.02;5.60;;;25.10;51.10;;;;;;6102780;28;20053;-79
2021/06/08 09:55:20;;;;;;;12.63;6.13;;;25.20;51.20;;;;;;6103203;28;20115;-81
2021/06/08 09:58:23;;;;;;;10.27;6.05;;;25.30;51.30;;;;;;6105029;29;20039;-80
2021/06/08 10:01:27;;;;;;;11.07;6.15;;;25.40;51.20;;;;;;6101746;29;20063;-79
2021/06/08 10:04:30;;;;;;;8.68;5.25;;;25.60;51.40;;;;;;6103392;29;20112;-80
2021/06/08 10:07:32;;;;;;;10.43;5.55;;;25.90;50.80;;;;;;6103090;29;20465;-80
2021/06/08 10:10:41;;;;;;;11.95;6.32;;;26.20;50.00;;;;;;6103546;29;20051;-79
2021/06/08 10:13:42;;;;;;;7.30;5.05;;;26.40;49.50;;;;;;6100282;28;20316;-79
2021/06/08 10:16:43;;;;;;;13.10;5.65;;;26.50;49.40;;;;;;6083906;29;20060;-76
2021/06/08 10:19:45;;;;;;;8.52;5.30;;;26.50;49.20;;;;;;6092665;28;20052;-77
2021/06/08 10:22:46;;;;;;;8.95;5.30;;;26.50;49.20;;;;;;6105279;28;20107;-79
2021/06/08 10:25:49;;;;;;;10.93;5.47;;;26.60;49.20;;;;;;6104098;29;20469;-78
2021/06/08 10:28:50;;;;;;;9.13;5.22;;;26.60;49.10;;;;;;6105072;29;20445;-78
2021/06/08 10:31:52;;;;;;;9.15;4.53;;;26.70;49.00;;;;;;6103587;29;20131;-79
2021/06/08 10:34:54;;;;;;;9.48;5.30;;;26.80;48.70;;;;;;6121591;29;20099;-78
2021/06/08 10:37:56;;;;;;;11.02;5.20;;;26.90;48.50;;;;;;6088023;29;20044;-78
2021/06/08 10:40:57;;;;;;;7.47;4.45;;;26.90;48.30;;;;;;6102763;29;20051;-78
2021/06/08 10:44:00;;;;;;;12.32;5.20;;;26.70;48.60;;;;;;6118842;29;20044;-79
2021/06/08 10:47:19;;;;;;;8.90;4.88;;;26.70;49.00;;;;;;6100731;29;20040;-78
2021/06/08 10:50:32;;;;;;;7.53;4.43;;;26.80;49.00;;;;;;6120150;28;20040;-78
2021/06/08 10:53:36;;;;;;;8.32;4.95;;;26.90;48.80;;;;;;6103495;28;20121;-78
2021/06/08 10:56:37;;;;;;;9.52;4.65;;;27.00;48.70;;;;;;6103186;29;20124;-79
2021/06/08 10:59:43;;;;;;;7.07;4.55;;;27.00;48.50;;;;;;6118780;29;20046;-78
2021/06/08 11:02:45;;;;;;;9.55;4.72;;;27.00;48.50;;;;;;6119149;29;20036;-79
2021/06/08 11:05:56;;;;;;;6.68;4.72;;;27.40;47.90;;;;;;6103220;29;20103;-79
2021/06/08 11:09:00;;;;;;;9.68;4.38;;;28.50;45.90;;;;;;6086609;29;20387;-78
2021/06/08 11:12:07;;;;;;;14.40;4.45;;;29.70;43.90;;;;;;6118390;29;20051;-77
2021/06/08 11:15:20;;;;;;;9.52;4.22;;;30.60;42.00;;;;;;6103019;29;20043;-77
2021/06/08 11:18:22;;;;;;;6.82;3.78;;;31.30;40.50;;;;;;6103000;29;20043;-78
2021/06/08 11:21:25;;;;;;;7.30;4.18;;;32.00;39.10;;;;;;6088319;28;20039;-78
2021/06/08 11:24:42;;;;;;;4.90;3.90;;;32.50;38.30;;;;;;6102673;29;20202;-79
2021/06/08 11:28:05;;;;;;;4.45;3.17;;;32.90;37.40;;;;;;6122055;28;20039;-78
2021/06/08 11:31:06;;;;;;;5.18;3.72;;;33.20;36.50;;;;;;6127054;28;20054;-78
2021/06/08 11:34:44;;;;;;;5.65;3.97;;;33.40;36.30;;;;;;6126534;29;20035;-80
2021/06/08 11:38:01;;;;;;;5.40;3.80;;;33.80;35.80;;;;;;6089405;29;20028;-78
2021/06/08 11:41:08;;;;;;;4.95;3.83;;;33.60;36.00;;;;;;6075263;29;20340;-78
2021/06/08 11:44:20;;;;;;;5.25;3.50;;;33.10;36.00;;;;;;6075378;29;20047;-78
2021/06/08 11:47:33;;;;;;;6.10;3.80;;;32.30;37.20;;;;;;6076385;29;20047;-79
2021/06/08 11:50:44;;;;;;;4.88;3.47;;;32.30;37.50;;;;;;6073463;29;20135;-78
2021/06/08 11:54:04;;;;;;;9.27;4.57;;;32.60;37.10;;;;;;6098950;29;20036;-78
2021/06/08 11:57:12;;;;;;;7.75;3.58;;;33.20;36.40;;;;;;6099003;29;20123;-77
2021/06/08 12:00:13;;;;;;;;;;;33.60;35.80;;;;;;6113500;28;20099;-77
2021/06/08 12:03:31;;;;;;;8.93;3.85;;;33.50;35.50;;;;;;6100140;29;19923;-78
2021/06/08 12:06:55;;;;;;;9.00;3.40;;;33.50;35.50;;;;;;6098097;29;20069;-77
2021/06/08 12:09:57;;;;;;;5.82;3.50;;;32.90;36.20;;;;;;6098769;29;20036;-78
2021/06/08 12:12:59;;;;;;;5.00;3.15;;;32.20;37.20;;;;;;6098578;29;20351;-78
2021/06/08 12:16:00;;;;;;;4.60;3.38;;;31.70;38.00;;;;;;6114790;29;20112;-78
2021/06/08 12:19:07;;;;;;;6.07;2.88;;;31.00;38.70;;;;;;6115433;29;20082;-78
2021/06/08 12:22:22;;;;;;;;;;;30.50;39.40;;;;;;6115935;28;20350;-78
2021/06/08 12:25:24;;;;;;;5.25;2.95;;;30.10;40.00;;;;;;6100747;28;19930;-79
2021/06/08 12:28:25;;;;;;;7.50;2.85;;;29.90;40.50;;;;;;6083443;29;20111;-79
2021/06/08 12:31:26;;;;;;;4.20;3.13;;;29.60;40.90;;;;;;6100030;29;20501;-79
2021/06/08 12:34:34;;;;;;;6.38;3.45;;;29.50;41.30;;;;;;6115317;28;20107;-77
2021/06/08 12:37:35;;;;;;;6.70;2.85;;;29.50;41.50;;;;;;6114390;29;20492;-78
2021/06/08 12:40:37;;;;;;;5.25;2.58;;;29.70;41.10;;;;;;6104396;29;20115;-78
2021/06/08 12:43:47;;;;;;;5.30;2.70;;;30.00;40.50;;;;;;6102558;29;20059;-77
2021/06/08 12:46:50;;;;;;;4.10;2.70;;;30.60;39.40;;;;;;6103438;29;20043;-78
2021/06/08 12:49:51;;;;;;;2.72;2.22;;;31.60;38.00;;;;;;6103079;28;20369;-78
2021/06/08 12:52:57;;;;;;;3.88;2.88;;;32.40;36.70;;;;;;6104276;28;20047;-78
2021/06/08 12:55:58;;;;;;;4.30;2.83;;;32.80;35.80;;;;;;6103220;28;20058;-77
2021/06/08 12:58:59;;;;;;;4.30;3.10;;;32.70;36.10;;;;;;6102393;29;20032;-79
2021/06/08 13:02:05;;;;;;;3.45;2.75;;;32.40;36.60;;;;;;6087163;29;20033;-78
2021/06/08 13:05:09;;;;;;;3.80;2.67;;;32.10;37.00;;;;;;6105044;29;20047;-78
2021/06/08 13:08:10;;;;;;;4.78;2.85;;;31.80;37.10;;;;;;6105248;29;20040;-78
2021/06/08 13:11:22;;;;;;;3.53;2.58;;;31.50;37.50;;;;;;6089794;29;20115;-79
2021/06/08 13:14:23;;;;;;;6.28;3.40;;;31.90;37.40;;;;;;6103719;29;20098;-77
2021/06/08 13:17:27;;;;;;;6.35;2.90;;;32.30;36.70;;;;;;6086921;29;20067;-78
2021/06/08 13:20:30;;;;;;;3.78;2.72;;;32.60;36.10;;;;;;6088802;28;20107;-78
2021/06/08 13:23:33;;;;;;;3.42;2.70;;;33.70;34.90;;;;;;6119752;28;20485;-79
2021/06/08 13:26:34;;;;;;;3.58;2.78;;;35.10;32.70;;;;;;6103252;29;20028;-77
2021/06/08 13:29:35;;;;;;;6.40;3.20;;;36.40;30.70;;;;;;6102946;29;20059;-77
2021/06/08 13:32:36;;;;;;;2.90;2.38;;;37.50;29.10;;;;;;6103192;29;20119;-77
2021/06/08 13:35:37;;;;;;;2.63;2.28;;;38.40;28.00;;;;;;6103491;29;20062;-77
2021/06/08 13:38:38;;;;;;;2.72;2.10;;;39.10;27.20;;;;;;6102352;29;20347;-78
2021/06/08 13:41:40;;;;;;;3.58;2.40;;;39.80;26.30;;;;;;6118733;28;20040;-78
2021/06/08 13:45:00;;;;;;;3.05;2.03;;;40.30;25.60;;;;;;6101240;28;20347;-78
2021/06/08 13:48:27;;;;;;;3.70;2.17;;;41.00;25.20;;;;;;6100772;29;20103;-78
2021/06/08 13:51:31;;;;;;;3.00;2.37;;;41.00;25.00;;;;;;6097038;28;20079;-78
2021/06/08 13:54:36;;;;;;;3.58;2.08;;;41.60;24.50;;;;;;6084077;28;20351;-79
2021/06/08 14:00:17;;;;;;;13.98;3.85;;;42.20;24.10;;;;;;6099959;29;20036;-78
2021/06/08 14:01:10;;;;;;;9.45;3.65;;;41.80;24.00;;;;;;6100364;29;20031;-79
2021/06/08 14:04:15;;;;;;;7.05;2.35;;;42.40;23.60;;;;;;6098599;29;20047;-79
2021/06/08 14:07:18;;;;;;;4.03;2.85;;;43.30;23.00;;;;;;6098529;28;20463;-78
2021/06/08 14:10:19;;;;;;;6.20;2.20;;;44.00;22.20;;;;;;6107755;28;20071;-78
2021/06/08 14:13:43;;;;;;;2.33;2.08;;;44.20;21.70;;;;;;6103776;28;20094;-78
2021/06/08 14:16:49;;;;;;;5.38;2.15;;;43.40;22.30;;;;;;6099120;29;20453;-78
2021/06/08 14:19:52;;;;;;;4.13;2.15;;;43.00;22.60;;;;;;6116168;28;20040;-79
2021/06/08 14:22:53;;;;;;;6.05;3.90;;;41.90;23.30;;;;;;6085179;28;20051;-78
2021/06/08 14:25:54;;;;;;;3.28;2.20;;;40.70;24.30;;;;;;6099084;28;20051;-78
2021/06/08 14:29:00;;;;;;;3.15;2.03;;;39.40;25.40;;;;;;6099978;29;20036;-78
2021/06/08 14:32:01;;;;;;;4.20;2.22;;;38.30;26.40;;;;;;6099299;29;20068;-78
2021/06/08 14:35:05;;;;;;;4.40;2.58;;;38.10;26.80;;;;;;6099647;28;20040;-78
2021/06/08 14:38:06;;;;;;;7.07;2.80;;;39.10;26.10;;;;;;6115585;28;20052;-78
2021/06/08 14:41:07;;;;;;;3.55;2.50;;;39.90;25.30;;;;;;6099150;29;20712;-77
2021/06/08 14:44:08;;;;;;;2.53;2.00;;;40.40;24.80;;;;;;6099031;29;20207;-79
2021/06/08 14:47:09;;;;;;;3.53;1.83;;;39.90;25.20;;;;;;6099616;29;20032;-78
2021/06/08 14:50:11;;;;;;;4.78;2.17;;;39.60;25.40;;;;;;6084646;28;20142;-78
2021/06/08 14:53:12;;;;;;;3.45;2.33;;;38.70;26.20;;;;;;6100162;28;20059;-78
2021/06/08 14:56:13;;;;;;;3.72;2.47;;;37.20;27.70;;;;;;6099273;28;20366;-78
2021/06/08 14:59:14;;;;;;;4.05;2.30;;;35.70;29.30;;;;;;6099023;29;20084;-78
2021/06/08 15:02:16;;;;;;;10.05;2.20;;;34.60;30.50;;;;;;6115524;28;20481;-78
2021/06/08 15:05:17;;;;;;;4.32;2.53;;;33.90;31.40;;;;;;6116623;29;20052;-78
2021/06/08 15:08:18;;;;;;;6.28;2.55;;;33.50;32.40;;;;;;6100877;29;20099;-77
2021/06/08 15:11:19;;;;;;;3.38;2.30;;;32.80;33.60;;;;;;6100678;29;20064;-78
2021/06/08 15:14:20;;;;;;;5.55;2.58;;;32.00;34.70;;;;;;6101154;29;20051;-78
2021/06/08 15:17:21;;;;;;;3.10;2.58;;;31.40;36.00;;;;;;6108231;28;20087;-79
2021/06/08 15:20:22;;;;;;;4.13;2.60;;;31.00;36.90;;;;;;6117108;28;20453;-78
2021/06/08 15:23:23;;;;;;;3.63;2.72;;;30.80;37.30;;;;;;6100913;28;20040;-78
2021/06/08 15:26:24;;;;;;;3.25;2.47;;;30.60;38.00;;;;;;6100446;28;20040;-78
2021/06/08 15:29:25;;;;;;;3.85;2.70;;;31.00;38.20;;;;;;6100388;29;20036;-78
2021/06/08 15:32:26;;;;;;;5.72;2.80;;;32.00;36.70;;;;;;6100751;29;20047;-78
2021/06/08 15:35:27;;;;;;;4.50;3.00;;;32.30;36.00;;;;;;6084165;29;20130;-78
2021/06/08 15:38:30;;;;;;;3.78;3.05;;;32.00;36.10;;;;;;6115388;29;20099;-79
2021/06/08 15:41:31;;;;;;;6.82;3.10;;;31.50;36.70;;;;;;6116616;29;20047;-78
2021/06/08 15:44:32;;;;;;;8.02;3.50;;;31.00;37.60;;;;;;6100697;29;20044;-78
2021/06/08 15:47:33;;;;;;;7.00;3.22;;;30.60;38.30;;;;;;6100977;29;20465;-78
2021/06/08 15:50:35;;;;;;;5.20;3.03;;;30.30;38.90;;;;;;6102586;29;20062;-78
2021/06/08 15:53:36;;;;;;;5.22;2.80;;;30.00;39.80;;;;;;6108534;28;20489;-77
2021/06/08 15:56:38;;;;;;;8.13;3.15;;;29.70;40.70;;;;;;6100904;29;20040;-77
2021/06/08 15:59:39;;;;;;;9.55;6.03;;;29.30;41.70;;;;;;6100787;29;20051;-77
2021/06/08 16:02:40;;;;;;;9.52;4.85;;;28.80;42.80;;;;;;6100622;29;20454;-79
2021/06/08 16:05:42;;;;;;;5.10;2.88;;;28.50;43.60;;;;;;6084408;29;20127;-78
2021/06/08 16:08:43;;;;;;;7.10;2.88;;;28.10;44.20;;;;;;6115600;28;20501;-77